PLYK1: Cottonwood River, Plymouth, KS

Data processed at Wed May 22 2019 23:50


All information presented herein is the property of the government of the United States of America and may be revised or deleted at any time without prior notice.
Dissemination of this information without the expressed written consent of the Public Affairs Office, Tulsa District U.S. Army Corps of Engineers is strictly prohibited.
These data are gathered electronically and, as presented, have not undergone any form of quality control. These data are not guaranteed to be valid or correct.
Go to home page.
Go to station list.
Go to home page.

Upstream stations:

Downstream station:
Previous Day
Next Day
Current Day
    
SHEF ID:       PLYK1     COTTONWOOD R NR PLYMOUTH, KS
STATION TYPE:  
Regulating: Stage =    28.00, Flow =    10752

               PRECIP     STAGE  STAGE(2)  RIV-FLOW  BAT-LOAD
                   in        ft        ft       cfs      volt
              Ccp-Rev   Ccp-Rev   Ccp-Rev   Ccp-Rev   Ccp-Rev
(US/Central)
05/22 00:00      0.00     33.70     33.97     25678     12.77
05/22 01:00      0.00     33.79     33.98     27111     12.71
05/22 02:00      0.00     33.75     33.95     26465     12.71
05/22 03:00      0.00     33.65     33.92     24914     12.71
05/22 04:00      0.00     33.72     33.89     25990     12.71
05/22 05:00      0.00     33.73     33.84     26147     12.65
05/22 06:00      0.00     33.65     33.83     24914     12.65
05/22 07:00      0.00     33.67     33.80     25217     12.65
05/22 08:00      0.00     33.63     33.80     24614     12.65
05/22 09:00      0.00     33.58     33.80     23879     12.83
05/22 10:00      0.00     33.56     33.85     23592     13.12
05/22 11:00      0.00     33.63     33.88     24614     13.83
05/22 12:00      0.00     33.71     33.92     25834     13.65
05/22 13:00      0.00     33.76     33.94     26625     13.83
05/22 14:00      0.00     33.81     34.00     27439     13.71
05/22 15:00      0.00     33.81     34.02     27439     13.48
05/22 16:00      0.00     33.87     34.05     28448     13.59
05/22 17:00      0.00     33.88     34.05     28619     13.53
05/22 18:00      0.00     33.85     34.08     28108     13.42
05/22 19:00      0.00     33.87     34.05     28448     13.18
05/22 20:00      0.00     33.87     34.04     28448     13.12
05/22 21:00      0.00     33.84     34.03     27939     13.00
05/22 22:00      0.00     33.84     34.00     27939     13.00
05/22 23:00      0.00     33.81     34.01     27439     13.00